Houlton International, ME

1:18 AM EST on December 21, 2014 (GMT -0500)
Millinocket Municipal | Change Station
CLOSE
Current Station
Airport
Location: Millinocket,
Elevation: 407 ft
Nearby Weather Stations

Elev 407 ft 45.65 °N, 68.69 °W | Updated 25 minutes ago

Overcast
Overcast
21 °F
Feels Like 21 °F
N
0
Wind Variable Wind from North

Today
High -- | Low -- °F
--% Chance of Precip.
Yesterday
High -- | Low -- °F
Precip. -- in
7:10 AM 3:48 PM
Waning Crescent, 1% visible
Pressure 30.40 in
Visibility 10.0 miles
Clouds Overcast 1900 ft
Dew Point 18 °F
Humidity 88%
Rainfall 0.00 in
Snow Depth Not available.
UV 0 out of 12
Pollen .10 out of 12
Air Quality Not available.
Flu Activity Not available.
METAR KMLT 210553Z AUTO 00000KT 10SM OVC019 M06/M08 A3036 RMK AO2 SLP292 T10611078 11061 21067 58007

More Conditions Fewer Conditions

Pressure 30.40 in
Visibility 10.0 miles
Clouds Overcast 1900 ft
Dew Point 18 °F
Humidity 88%
Rainfall 0.00 in
Snow Depth Not available.
UV 0 out of 12
Pollen .10 out of 12
Air Quality Not available.
Flu Activity Not available.
METAR KMLT 210553Z AUTO 00000KT 10SM OVC019 M06/M08 A3036 RMK AO2 SLP292 T10611078 11061 21067 58007

More Conditions Fewer Conditions

10-Day Weather Forecast

Almanac

Astronomy

Dec. 21, 2014 Rise Set
Actual Time
Civil Twilight
Nautical Twilight
Astronomical Twilight
Moon
Length of Visible Light
Length of Day
Tomorrow will be .
, % of the Moon is Illuminated

Today's Extremes

State Highs State Lows

Community

WunderPhotos

Upload Photos

1,779,360 photos uploaded!

WunderBlogs® & News

Nearby

Air Quality

  Air Quality AQ Index Pollutant
Not available.

Snow Depth

Station Depth Elevation

Earthquake Activity

City Distance Mag. Time & Date
Minimum magnitude displayed is 2.5.

Coastal Water Temperatures

Place Temperature

Nearby Weather Stations